Time;durP1;ratioP1;P1;durP2;ratioP2;P2;SDS_P1;SDS_P2;PMS_P1;PMS_P2;Temp;Humidity;BMP_temperature;BMP_pressure;BME280_temperature;BME280_humidity;BME280_pressure;Samples;Min_cycle;Max_cycle;Signal;HPM_P1;HPM_P2
2024/04/23 00:02:05;;;;;;;3.90;1.58;;;7.50;99.90;;;;;;6333079;22;20003;-89
2024/04/23 00:04:31;;;;;;;5.45;1.70;;;7.50;99.90;;;;;;6332998;22;20551;-89
2024/04/23 00:06:58;;;;;;;4.85;1.45;;;7.50;99.90;;;;;;6332213;22;19999;-91
2024/04/23 00:09:24;;;;;;;10.10;1.40;;;7.50;99.90;;;;;;6332396;22;20327;-90
2024/04/23 00:11:50;;;;;;;3.92;1.83;;;7.40;99.90;;;;;;6335930;22;19995;-90
2024/04/23 00:14:16;;;;;;;12.25;1.92;;;7.40;99.90;;;;;;6375776;22;20010;-90
2024/04/23 00:16:42;;;;;;;5.20;1.35;;;7.40;99.90;;;;;;6333052;22;19995;-89
2024/04/23 00:19:08;;;;;;;12.18;1.60;;;7.40;99.90;;;;;;6332591;22;20010;-90
2024/04/23 00:21:33;;;;;;;7.80;1.60;;;7.40;99.90;;;;;;6332387;22;19995;-90
2024/04/23 00:23:59;;;;;;;10.55;1.63;;;7.40;99.90;;;;;;6332069;22;20074;-89
2024/04/23 00:26:24;;;;;;;3.88;1.05;;;7.30;99.90;;;;;;6332612;22;20498;-91
2024/04/23 00:28:51;;;;;;;10.85;1.67;;;7.30;99.90;;;;;;6333250;22;20429;-91
2024/04/23 00:31:17;;;;;;;12.73;1.67;;;7.30;99.90;;;;;;6333534;22;19991;-91
2024/04/23 00:33:43;;;;;;;9.52;1.52;;;7.20;99.90;;;;;;6332748;22;20006;-88
2024/04/23 00:36:09;;;;;;;7.38;1.60;;;7.20;99.90;;;;;;6332841;22;20025;-90
2024/04/23 00:38:35;;;;;;;13.70;1.85;;;7.10;99.90;;;;;;6333979;22;19995;-89
2024/04/23 00:41:01;;;;;;;5.72;1.50;;;7.10;99.90;;;;;;6332365;22;20011;-90
2024/04/23 00:43:27;;;;;;;9.13;1.60;;;7.10;99.90;;;;;;6332686;22;19991;-89
2024/04/23 00:45:58;;;;;;;7.88;1.10;;;7.10;99.90;;;;;;6332670;22;20002;-91
2024/04/23 00:48:24;;;;;;;3.92;1.33;;;7.00;99.90;;;;;;6375934;22;20017;-90
2024/04/23 00:50:50;;;;;;;5.35;1.60;;;6.90;99.90;;;;;;6376252;22;20015;-89
2024/04/23 00:53:17;;;;;;;10.13;1.25;;;6.90;99.90;;;;;;6332214;22;20005;-90
2024/04/23 00:55:44;;;;;;;10.48;1.58;;;6.90;99.90;;;;;;6331323;22;20007;-89
2024/04/23 00:58:10;;;;;;;7.93;1.50;;;6.80;99.90;;;;;;6333741;22;20001;-90
2024/04/23 01:00:36;;;;;;;7.30;1.63;;;6.80;99.90;;;;;;6335492;22;20000;-89
2024/04/23 01:03:03;;;;;;;9.38;1.23;;;6.70;99.90;;;;;;6334953;22;20039;-88
2024/04/23 01:05:28;;;;;;;10.85;1.77;;;6.70;99.90;;;;;;6335460;22;20010;-90
2024/04/23 01:07:54;;;;;;;8.57;1.70;;;6.70;99.90;;;;;;6334906;22;19999;-90
2024/04/23 01:10:20;;;;;;;13.80;2.00;;;6.60;99.90;;;;;;6335737;22;20597;-90
2024/04/23 01:12:45;;;;;;;9.82;1.40;;;6.60;99.90;;;;;;6334448;22;20430;-90
2024/04/23 01:15:13;;;;;;;8.77;1.50;;;6.50;99.90;;;;;;6334382;22;20017;-90
2024/04/23 01:17:39;;;;;;;16.70;1.50;;;6.50;99.90;;;;;;6377948;22;19991;-90
2024/04/23 01:20:11;;;;;;;10.13;1.58;;;6.50;99.90;;;;;;6335222;22;20010;-90
2024/04/23 01:22:46;;;;;;;14.25;1.60;;;6.40;99.90;;;;;;6335183;22;19999;-90
2024/04/23 01:25:16;;;;;;;10.70;1.90;;;6.40;99.90;;;;;;6334502;22;19999;-89
2024/04/23 01:27:43;;;;;;;9.48;1.40;;;6.30;99.90;;;;;;6375299;22;20014;-90
2024/04/23 01:30:10;;;;;;;9.60;1.60;;;6.30;99.90;;;;;;6334957;22;20010;-90
2024/04/23 01:32:38;;;;;;;11.85;1.63;;;6.30;99.90;;;;;;6335230;22;20003;-90
2024/04/23 01:35:05;;;;;;;10.13;1.75;;;6.20;99.90;;;;;;6335208;22;19999;-90
2024/04/23 01:37:32;;;;;;;11.90;2.33;;;6.20;99.90;;;;;;6335466;22;20423;-89
2024/04/23 01:40:00;;;;;;;14.82;1.95;;;6.20;99.90;;;;;;6334847;22;20421;-90
2024/04/23 01:42:26;;;;;;;14.80;2.00;;;6.10;99.90;;;;;;6337452;22;20007;-90
2024/04/23 01:44:53;;;;;;;15.32;1.60;;;6.10;99.90;;;;;;6337364;22;20014;-90
2024/04/23 01:47:18;;;;;;;14.40;2.60;;;6.10;99.90;;;;;;6337088;22;20104;-90
2024/04/23 01:49:44;;;;;;;23.85;3.40;;;6.10;99.90;;;;;;6337101;22;20291;-89
2024/04/23 01:52:10;;;;;;;19.45;2.78;;;6.10;99.90;;;;;;6335645;22;19999;-90
2024/04/23 01:54:37;;;;;;;16.63;1.58;;;6.00;99.90;;;;;;6335246;22;20414;-90
2024/04/23 01:57:06;;;;;;;17.83;2.03;;;6.00;99.90;;;;;;6376242;22;19995;-91
2024/04/23 01:59:32;;;;;;;7.95;1.80;;;6.00;99.90;;;;;;6336333;22;19999;-90
2024/04/23 02:02:01;;;;;;;16.65;4.25;;;6.00;99.90;;;;;;6378296;22;20415;-91
2024/04/23 02:04:28;;;;;;;8.18;1.80;;;6.00;99.90;;;;;;6335730;22;20411;-90
2024/04/23 02:06:55;;;;;;;13.07;1.90;;;5.90;99.90;;;;;;6376689;22;20007;-90
2024/04/23 02:09:21;;;;;;;10.60;1.92;;;5.90;99.90;;;;;;6335639;22;20051;-90
2024/04/23 02:11:53;;;;;;;12.27;1.65;;;5.90;99.90;;;;;;6336397;22;20101;-90
2024/04/23 02:14:19;;;;;;;12.32;2.05;;;5.90;99.90;;;;;;6338527;22;19995;-90
2024/04/23 02:16:45;;;;;;;13.80;2.22;;;5.90;99.90;;;;;;6338203;22;20306;-89
2024/04/23 02:19:10;;;;;;;9.18;1.70;;;5.80;99.90;;;;;;6334894;22;20291;-89
2024/04/23 02:21:36;;;;;;;27.13;3.83;;;5.80;99.90;;;;;;6377377;22;19999;-91
2024/04/23 02:24:02;;;;;;;10.48;1.52;;;5.80;99.90;;;;;;6334835;22;20013;-89
2024/04/23 02:26:27;;;;;;;11.10;1.92;;;5.80;99.90;;;;;;6377354;22;19995;-90
2024/04/23 02:28:53;;;;;;;12.43;1.80;;;5.70;99.90;;;;;;6334433;22;20026;-90
2024/04/23 02:31:19;;;;;;;17.10;2.63;;;5.70;99.90;;;;;;6376933;22;20074;-89
2024/04/23 02:33:44;;;;;;;12.50;2.15;;;5.70;99.90;;;;;;6333279;22;20024;-90
2024/04/23 02:36:10;;;;;;;10.65;2.03;;;5.70;99.90;;;;;;6333033;22;20002;-89
2024/04/23 02:38:36;;;;;;;13.07;1.83;;;5.70;99.90;;;;;;6333423;22;20421;-89
2024/04/23 02:41:01;;;;;;;7.78;1.92;;;5.70;99.90;;;;;;6376293;22;19995;-89
2024/04/23 02:43:27;;;;;;;18.50;2.10;;;5.60;99.90;;;;;;6333331;22;19995;-89
2024/04/23 02:45:52;;;;;;;18.83;2.28;;;5.60;99.90;;;;;;6375504;22;19996;-89
2024/04/23 02:48:18;;;;;;;12.50;2.20;;;5.60;99.90;;;;;;6333603;22;20071;-89
2024/04/23 02:50:44;;;;;;;16.67;2.03;;;5.60;99.90;;;;;;6375393;22;19999;-90
2024/04/23 02:53:09;;;;;;;13.52;1.95;;;5.60;99.90;;;;;;6332378;22;19999;-89
2024/04/23 02:55:35;;;;;;;13.75;2.20;;;5.60;99.90;;;;;;6333231;22;20011;-89
2024/04/23 02:58:01;;;;;;;14.07;2.42;;;5.60;99.90;;;;;;6376247;22;20074;-88
2024/04/23 03:00:26;;;;;;;17.88;2.20;;;5.60;99.90;;;;;;6333714;22;19995;-90
2024/04/23 03:02:52;;;;;;;11.48;2.60;;;5.60;99.90;;;;;;6376601;22;20002;-90
2024/04/23 03:05:17;;;;;;;15.13;1.98;;;5.60;99.90;;;;;;6333117;22;20411;-89
2024/04/23 03:07:43;;;;;;;10.00;2.22;;;5.60;99.90;;;;;;6375643;22;20406;-88
2024/04/23 03:10:09;;;;;;;16.20;2.25;;;5.60;99.90;;;;;;6332952;22;20378;-89
2024/04/23 03:12:35;;;;;;;16.77;3.25;;;5.60;99.90;;;;;;6333068;22;20009;-89
2024/04/23 03:15:00;;;;;;;16.67;2.28;;;5.50;99.90;;;;;;6333341;22;20007;-89
2024/04/23 03:17:26;;;;;;;13.98;2.38;;;5.50;99.90;;;;;;6333642;22;19991;-90
2024/04/23 03:19:51;;;;;;;18.83;3.15;;;5.50;99.90;;;;;;6332932;22;20006;-87
2024/04/23 03:22:17;;;;;;;17.92;2.22;;;5.40;99.90;;;;;;6332895;22;20458;-88
2024/04/23 03:24:43;;;;;;;18.45;1.98;;;5.40;99.90;;;;;;6332372;22;20003;-90
2024/04/23 03:27:09;;;;;;;10.57;1.90;;;5.40;99.90;;;;;;6333793;22;19995;-89
2024/04/23 03:29:34;;;;;;;16.77;2.28;;;5.30;99.90;;;;;;6333450;22;19999;-90
2024/04/23 03:32:02;;;;;;;18.27;2.25;;;5.30;99.90;;;;;;6333301;22;19999;-88
2024/04/23 03:34:27;;;;;;;14.02;2.28;;;5.30;99.90;;;;;;6333222;22;19995;-88
2024/04/23 03:36:53;;;;;;;22.38;2.70;;;5.30;99.90;;;;;;6373798;22;19999;-88
2024/04/23 03:39:19;;;;;;;18.77;2.35;;;5.20;99.90;;;;;;6332928;22;20075;-90
2024/04/23 03:41:58;;;;;;;13.32;1.98;;;5.20;99.90;;;;;;6332981;22;19995;-88
2024/04/23 03:44:25;;;;;;;13.77;2.45;;;5.10;99.90;;;;;;6332834;22;19996;-90
2024/04/23 03:46:51;;;;;;;15.88;2.20;;;5.10;99.90;;;;;;6332497;22;19995;-88
2024/04/23 03:49:17;;;;;;;18.70;2.30;;;5.10;99.90;;;;;;6374679;22;20010;-87
2024/04/23 03:51:42;;;;;;;11.55;3.28;;;5.10;99.90;;;;;;6332144;22;20415;-87
2024/04/23 03:54:08;;;;;;;7.43;2.33;;;5.00;99.90;;;;;;6332591;22;20521;-88
2024/04/23 03:56:34;;;;;;;12.45;2.40;;;5.10;99.90;;;;;;6332248;22;20050;-89
2024/04/23 03:58:59;;;;;;;17.15;2.25;;;5.00;99.90;;;;;;6332196;22;20062;-88
2024/04/23 04:01:25;;;;;;;15.40;2.03;;;5.00;99.90;;;;;;6332790;22;20014;-89
2024/04/23 04:06:35;;;;;;;9.60;2.47;;;5.00;99.90;;;;;;6377818;22;20002;-89
2024/04/23 04:09:00;;;;;;;11.32;2.08;;;5.00;99.90;;;;;;6333847;22;19995;-89
2024/04/23 04:11:31;;;;;;;10.05;2.17;;;5.00;99.90;;;;;;6332586;22;19991;-88
2024/04/23 04:14:00;;;;;;;14.30;2.75;;;5.00;99.90;;;;;;6332077;22;20006;-88
2024/04/23 04:16:26;;;;;;;22.70;3.95;;;4.90;99.90;;;;;;6332615;22;20011;-88
2024/04/23 04:18:52;;;;;;;19.33;2.90;;;5.00;99.90;;;;;;6332753;22;20485;-89
2024/04/23 04:21:18;;;;;;;10.15;2.15;;;4.90;99.90;;;;;;6333075;22;19995;-88
2024/04/23 04:23:44;;;;;;;11.10;2.15;;;4.90;99.90;;;;;;6333164;22;19999;-89
2024/04/23 04:26:14;;;;;;;17.75;2.67;;;4.90;99.90;;;;;;6333482;22;19995;-89
2024/04/23 04:28:42;;;;;;;16.42;4.38;;;4.90;99.90;;;;;;6334193;22;20004;-88
2024/04/23 04:31:08;;;;;;;21.52;2.28;;;4.90;99.90;;;;;;6335222;22;20005;-88
2024/04/23 04:33:35;;;;;;;14.30;3.15;;;4.80;99.90;;;;;;6336368;22;20010;-87
2024/04/23 04:36:01;;;;;;;17.77;2.20;;;4.80;99.90;;;;;;6335856;22;19996;-89
2024/04/23 04:38:26;;;;;;;15.48;2.40;;;4.80;99.90;;;;;;6335413;22;19991;-89
2024/04/23 04:40:52;;;;;;;10.57;2.35;;;4.80;99.90;;;;;;6335141;22;20283;-88
2024/04/23 04:43:18;;;;;;;15.45;2.40;;;4.80;99.90;;;;;;6334821;22;19995;-88
2024/04/23 04:45:44;;;;;;;11.80;2.13;;;4.80;99.90;;;;;;6333935;22;20048;-88
2024/04/23 04:48:09;;;;;;;11.43;2.22;;;4.80;99.90;;;;;;6334497;22;20418;-89
2024/04/23 04:50:35;;;;;;;18.35;2.83;;;4.80;99.90;;;;;;6334529;22;20039;-89
2024/04/23 04:53:01;;;;;;;11.68;2.38;;;4.70;99.90;;;;;;6332406;22;20010;-89
2024/04/23 04:55:29;;;;;;;17.15;2.78;;;4.70;99.90;;;;;;6334328;22;20010;-88
2024/04/23 04:57:54;;;;;;;19.17;2.60;;;4.70;99.90;;;;;;6333728;22;19995;-88
2024/04/23 05:00:20;;;;;;;11.23;2.25;;;4.70;99.90;;;;;;6335158;22;20003;-89
2024/04/23 05:02:46;;;;;;;12.88;3.03;;;4.60;99.90;;;;;;6334392;22;19999;-90
2024/04/23 05:05:12;;;;;;;14.23;2.90;;;4.60;99.90;;;;;;6334809;22;20075;-88
2024/04/23 05:07:37;;;;;;;16.75;3.92;;;4.60;99.90;;;;;;6335117;22;20010;-90
2024/04/23 05:10:04;;;;;;;10.50;2.17;;;4.60;99.90;;;;;;6336212;22;20007;-88
2024/04/23 05:12:29;;;;;;;13.85;4.68;;;4.60;99.90;;;;;;6377995;22;20064;-90
2024/04/23 05:14:55;;;;;;;10.82;2.38;;;4.70;99.90;;;;;;6335371;22;20317;-88
2024/04/23 05:17:21;;;;;;;11.82;2.38;;;4.70;99.90;;;;;;6334218;22;19999;-89
2024/04/23 05:19:46;;;;;;;11.25;3.03;;;4.70;99.90;;;;;;6333949;22;19999;-90
2024/04/23 05:22:13;;;;;;;12.43;2.20;;;4.60;99.90;;;;;;6333865;22;20007;-90
2024/04/23 05:24:39;;;;;;;16.08;2.35;;;4.60;99.90;;;;;;6333700;22;19995;-89
2024/04/23 05:27:05;;;;;;;13.93;2.75;;;4.60;99.90;;;;;;6334096;22;19999;-89
2024/04/23 05:29:30;;;;;;;11.00;2.50;;;4.60;99.90;;;;;;6335241;22;19995;-89
2024/04/23 05:34:40;;;;;;;11.75;3.20;;;4.50;99.90;;;;;;6378109;22;20009;-88
2024/04/23 05:37:07;;;;;;;14.48;3.35;;;4.50;99.90;;;;;;6333607;22;19999;-88
2024/04/23 05:39:33;;;;;;;9.05;2.40;;;4.50;99.90;;;;;;6333514;22;20000;-88
2024/04/23 05:41:58;;;;;;;10.02;2.63;;;4.50;99.90;;;;;;6333851;22;20613;-87
2024/04/23 05:44:24;;;;;;;9.68;2.53;;;4.50;99.90;;;;;;6333638;22;20010;-88
2024/04/23 05:46:50;;;;;;;23.38;3.53;;;4.50;99.90;;;;;;6333779;22;19995;-90
2024/04/23 05:49:53;;;;;;;17.33;2.42;;;4.50;99.90;;;;;;6334551;22;20291;-90
2024/04/23 05:52:58;;;;;;;16.60;2.53;;;4.50;99.90;;;;;;6377005;22;19995;-90
2024/04/23 05:55:35;;;;;;;9.30;2.50;;;4.50;99.90;;;;;;6376634;22;20005;-89
2024/04/23 05:58:01;;;;;;;18.90;3.20;;;4.50;99.90;;;;;;6333546;22;20075;-90
2024/04/23 06:00:27;;;;;;;17.02;2.80;;;4.60;99.90;;;;;;6332981;22;19999;-89
2024/04/23 06:02:53;;;;;;;18.02;3.17;;;4.60;99.90;;;;;;6333265;22;20007;-90
2024/04/23 06:05:19;;;;;;;11.73;2.40;;;4.60;99.90;;;;;;6333194;22;19999;-90
2024/04/23 06:07:45;;;;;;;9.30;2.92;;;4.70;99.90;;;;;;6334996;22;20007;-90
2024/04/23 06:10:11;;;;;;;12.25;2.40;;;4.70;99.90;;;;;;6335590;22;20074;-90
2024/04/23 06:12:36;;;;;;;20.65;4.03;;;4.70;99.90;;;;;;6333940;22;20414;-90
2024/04/23 06:15:02;;;;;;;13.13;3.15;;;4.80;99.90;;;;;;6334330;22;20330;-90
2024/04/23 06:17:34;;;;;;;16.67;2.72;;;4.80;99.90;;;;;;6334442;22;20077;-89
2024/04/23 06:20:00;;;;;;;9.95;2.55;;;4.80;99.90;;;;;;6334362;22;19999;-90
2024/04/23 06:22:35;;;;;;;16.98;3.03;;;4.90;99.90;;;;;;6334847;22;19992;-90
2024/04/23 06:25:02;;;;;;;20.48;3.25;;;4.90;99.90;;;;;;6335587;22;19995;-87
2024/04/23 06:27:30;;;;;;;19.08;3.25;;;5.00;99.90;;;;;;6336512;22;20006;-90
2024/04/23 06:30:07;;;;;;;10.65;2.95;;;5.00;99.90;;;;;;6335596;22;20048;-90
2024/04/23 06:32:33;;;;;;;21.02;3.70;;;5.10;99.90;;;;;;6335276;22;19991;-90
2024/04/23 06:34:59;;;;;;;13.68;2.67;;;5.20;99.90;;;;;;6334349;22;20013;-89
2024/04/23 06:37:24;;;;;;;23.42;2.92;;;5.20;99.90;;;;;;6334471;22;20011;-88
2024/04/23 06:39:50;;;;;;;18.02;3.10;;;5.30;99.90;;;;;;6334105;22;20430;-89
2024/04/23 06:42:16;;;;;;;13.18;3.03;;;5.40;99.90;;;;;;6334707;22;20430;-90
2024/04/23 06:44:41;;;;;;;22.63;3.80;;;5.40;99.90;;;;;;6333343;22;19999;-89
2024/04/23 06:47:07;;;;;;;14.15;2.80;;;5.50;99.90;;;;;;6333930;22;20010;-91
2024/04/23 06:49:34;;;;;;;12.35;2.90;;;5.60;99.90;;;;;;6333358;22;20005;-89
2024/04/23 06:52:00;;;;;;;7.10;2.28;;;5.70;99.90;;;;;;6333684;22;19995;-90
2024/04/23 06:54:26;;;;;;;17.77;3.40;;;5.70;99.90;;;;;;6332612;22;20010;-90
2024/04/23 06:56:52;;;;;;;16.80;2.95;;;5.80;99.90;;;;;;6333624;22;20338;-90
2024/04/23 06:59:18;;;;;;;13.50;2.67;;;5.90;99.90;;;;;;6333482;22;20010;-88
2024/04/23 07:01:44;;;;;;;13.10;3.35;;;6.00;99.90;;;;;;6333593;22;19995;-89
2024/04/23 07:04:10;;;;;;;15.63;5.60;;;6.10;99.90;;;;;;6334004;22;20027;-91
2024/04/23 07:06:38;;;;;;;13.75;2.67;;;6.20;99.90;;;;;;6333680;22;19999;-91
2024/04/23 07:09:04;;;;;;;19.33;3.30;;;6.30;99.90;;;;;;6334446;22;19999;-91
2024/04/23 07:11:33;;;;;;;15.55;2.72;;;6.40;99.90;;;;;;6334567;22;20011;-91
2024/04/23 07:13:58;;;;;;;18.38;3.17;;;6.40;99.90;;;;;;6334911;22;20006;-90
2024/04/23 07:16:24;;;;;;;11.02;3.28;;;6.40;99.90;;;;;;6335569;22;20011;-90
2024/04/23 07:18:50;;;;;;;20.98;3.20;;;6.40;99.90;;;;;;6336232;22;19991;-91
2024/04/23 07:21:15;;;;;;;11.73;3.05;;;6.50;99.90;;;;;;6337895;22;19999;-90
2024/04/23 07:23:41;;;;;;;15.35;2.17;;;6.50;99.90;;;;;;6336041;22;19999;-90
2024/04/23 07:26:07;;;;;;;16.15;2.78;;;6.60;99.90;;;;;;6336388;22;20406;-91
2024/04/23 07:28:32;;;;;;;13.70;3.45;;;6.60;99.90;;;;;;6381527;22;19999;-91
2024/04/23 07:31:00;;;;;;;13.20;2.47;;;6.60;99.90;;;;;;6338856;22;20006;-88
2024/04/23 07:33:27;;;;;;;10.10;2.80;;;6.70;99.90;;;;;;6295477;22;20018;-91
2024/04/23 07:35:53;;;;;;;13.52;3.08;;;6.70;99.90;;;;;;6335864;22;19999;-90
2024/04/23 07:38:18;;;;;;;11.10;3.10;;;6.80;99.90;;;;;;6335033;22;20010;-90
2024/04/23 07:40:46;;;;;;;11.48;2.38;;;6.80;99.90;;;;;;6332600;22;19999;-88
2024/04/23 07:43:12;;;;;;;16.88;2.67;;;6.80;99.90;;;;;;6333868;22;19999;-88
2024/04/23 07:45:37;;;;;;;14.20;2.60;;;6.80;99.90;;;;;;6334386;22;20010;-91
2024/04/23 07:48:03;;;;;;;8.77;2.58;;;6.80;99.90;;;;;;6377089;22;19999;-91
2024/04/23 07:50:29;;;;;;;9.10;1.90;;;6.80;99.90;;;;;;6333886;22;19999;-89
2024/04/23 07:52:55;;;;;;;10.35;2.80;;;6.80;99.90;;;;;;6333857;22;20029;-88
2024/04/23 07:55:21;;;;;;;10.52;2.40;;;6.80;99.90;;;;;;6334312;22;20006;-92
2024/04/23 07:57:47;;;;;;;5.45;2.00;;;6.80;99.90;;;;;;6334348;22;20007;-90
2024/04/23 08:00:15;;;;;;;12.23;2.67;;;6.80;99.90;;;;;;6334741;22;19999;-89
2024/04/23 08:02:41;;;;;;;11.70;2.15;;;6.80;99.90;;;;;;6336386;22;20422;-90
2024/04/23 08:05:08;;;;;;;6.75;1.95;;;6.90;99.90;;;;;;6337056;22;19996;-90
2024/04/23 08:07:34;;;;;;;10.98;2.05;;;6.90;99.90;;;;;;6334589;22;20010;-88
2024/04/23 08:09:59;;;;;;;9.10;2.15;;;7.00;99.90;;;;;;6334897;22;19991;-88
2024/04/23 08:12:25;;;;;;;10.05;1.88;;;7.00;99.90;;;;;;6334316;22;20422;-90
2024/04/23 08:14:52;;;;;;;10.48;2.30;;;7.10;99.90;;;;;;6334465;22;19996;-90
2024/04/23 08:17:19;;;;;;;11.57;1.98;;;7.10;99.90;;;;;;6334345;22;19999;-90
2024/04/23 08:19:44;;;;;;;4.75;1.60;;;7.20;99.90;;;;;;6334535;22;19999;-90
2024/04/23 08:22:10;;;;;;;11.25;2.28;;;7.20;99.90;;;;;;6334200;22;20010;-91
2024/04/23 08:24:36;;;;;;;15.57;2.00;;;7.30;99.90;;;;;;6334018;22;20010;-90
2024/04/23 08:27:02;;;;;;;12.35;2.03;;;7.30;99.90;;;;;;6334013;22;20074;-91
2024/04/23 08:29:28;;;;;;;6.30;2.00;;;7.40;99.90;;;;;;6334383;22;20074;-90
2024/04/23 08:31:53;;;;;;;5.82;1.60;;;7.40;99.90;;;;;;6334090;22;20007;-90
2024/04/23 08:34:19;;;;;;;5.85;1.35;;;7.40;99.90;;;;;;6334173;22;20008;-91
2024/04/23 08:36:44;;;;;;;11.45;1.73;;;7.40;99.90;;;;;;6334857;22;20010;-90
2024/04/23 08:39:10;;;;;;;11.70;2.03;;;7.40;99.90;;;;;;6334989;22;20007;-90
2024/04/23 08:41:43;;;;;;;10.10;2.03;;;7.40;99.90;;;;;;6334534;22;20003;-90
2024/04/23 08:44:10;;;;;;;18.23;2.55;;;7.40;99.90;;;;;;6334318;22;20044;-90
2024/04/23 08:46:37;;;;;;;7.95;1.77;;;7.40;99.90;;;;;;6334474;22;20006;-90
2024/04/23 08:49:04;;;;;;;9.25;2.55;;;7.40;99.90;;;;;;6334995;22;20023;-90
2024/04/23 08:51:32;;;;;;;4.45;1.27;;;7.30;99.90;;;;;;6337646;22;19999;-90
2024/04/23 08:54:01;;;;;;;11.55;2.22;;;7.30;99.90;;;;;;6334408;22;20345;-89
2024/04/23 08:56:31;;;;;;;7.18;1.63;;;7.30;99.90;;;;;;6376331;22;19991;-89
2024/04/23 08:58:58;;;;;;;5.15;1.65;;;7.30;99.90;;;;;;6334647;22;20003;-89
2024/04/23 09:01:27;;;;;;;8.88;1.52;;;7.30;99.90;;;;;;6334390;22;19999;-90
2024/04/23 09:03:57;;;;;;;8.00;1.60;;;7.30;99.90;;;;;;6333838;22;20014;-90
2024/04/23 09:06:27;;;;;;;13.50;1.70;;;7.30;99.90;;;;;;6377057;22;19999;-90
2024/04/23 09:08:54;;;;;;;5.78;1.65;;;7.30;99.90;;;;;;6333858;22;20135;-90
2024/04/23 09:11:20;;;;;;;9.80;3.38;;;7.30;99.90;;;;;;6333954;22;20002;-90
2024/04/23 09:13:46;;;;;;;7.68;2.03;;;7.30;99.90;;;;;;6334263;22;20010;-89
2024/04/23 09:16:12;;;;;;;13.85;1.77;;;7.30;99.90;;;;;;6377253;22;19991;-90
2024/04/23 09:18:37;;;;;;;9.20;2.08;;;7.30;99.90;;;;;;6338457;22;19995;-88
2024/04/23 09:21:03;;;;;;;8.65;1.88;;;7.30;99.90;;;;;;6341765;22;19999;-89
2024/04/23 09:23:33;;;;;;;10.75;1.70;;;7.30;99.90;;;;;;6338228;22;20010;-90
2024/04/23 09:26:00;;;;;;;9.85;1.70;;;7.30;99.90;;;;;;6336193;22;19995;-90
2024/04/23 09:28:26;;;;;;;9.77;2.30;;;7.30;99.90;;;;;;6346229;22;19999;-90
2024/04/23 09:30:52;;;;;;;10.98;1.63;;;7.30;99.90;;;;;;6339517;22;20031;-91
2024/04/23 09:33:26;;;;;;;13.77;2.15;;;7.30;99.90;;;;;;6343598;22;19999;-90
2024/04/23 09:36:09;;;;;;;13.02;2.13;;;7.30;99.90;;;;;;6346120;22;19995;-90
2024/04/23 09:38:34;;;;;;;14.52;5.00;;;7.30;99.90;;;;;;6348398;22;19999;-90
2024/04/23 09:41:04;;;;;;;9.23;1.55;;;7.20;99.90;;;;;;6350765;22;20005;-91
2024/04/23 09:43:30;;;;;;;7.85;2.20;;;7.30;99.90;;;;;;6351242;22;20010;-91
2024/04/23 09:45:56;;;;;;;15.20;2.40;;;7.30;99.90;;;;;;6341624;22;19995;-90
2024/04/23 09:48:32;;;;;;;14.32;2.60;;;7.30;99.90;;;;;;6339868;22;20074;-90
2024/04/23 09:51:07;;;;;;;9.43;1.80;;;7.30;99.90;;;;;;6338266;22;19995;-89
2024/04/23 09:53:34;;;;;;;11.48;1.67;;;7.30;99.90;;;;;;6338342;22;19999;-89
2024/04/23 09:56:09;;;;;;;10.40;1.70;;;7.30;99.90;;;;;;6340530;22;19999;-89
2024/04/23 09:58:35;;;;;;;10.60;2.00;;;7.40;99.90;;;;;;6340663;22;20006;-91
2024/04/23 10:01:01;;;;;;;7.97;1.70;;;7.40;99.90;;;;;;6338980;22;19995;-90
2024/04/23 10:03:29;;;;;;;5.68;1.52;;;7.50;99.90;;;;;;6337865;22;19999;-90
2024/04/23 10:06:02;;;;;;;9.07;1.67;;;7.60;99.90;;;;;;6339456;22;20046;-90
2024/04/23 10:08:54;;;;;;;3.72;1.42;;;7.70;99.90;;;;;;6339117;22;20009;-90
2024/04/23 10:11:27;;;;;;;4.82;1.10;;;7.80;99.90;;;;;;6338912;22;20015;-90
2024/04/23 10:14:06;;;;;;;14.05;1.58;;;7.90;99.90;;;;;;6338215;22;20059;-90
2024/04/23 10:17:04;;;;;;;12.45;2.00;;;8.00;99.90;;;;;;6338601;22;20003;-91
2024/04/23 10:19:30;;;;;;;7.68;1.35;;;8.10;99.90;;;;;;6337626;22;20006;-90
2024/04/23 10:21:59;;;;;;;5.47;1.08;;;8.20;99.90;;;;;;6337710;22;20395;-90
2024/04/23 10:24:26;;;;;;;9.25;1.20;;;8.30;99.90;;;;;;6337152;22;20017;-90
2024/04/23 10:26:52;;;;;;;6.43;1.20;;;8.40;99.90;;;;;;6338995;22;19995;-90
2024/04/23 10:29:18;;;;;;;10.68;1.48;;;8.50;99.90;;;;;;6342954;22;19987;-92
2024/04/23 10:31:44;;;;;;;10.82;1.80;;;8.50;99.90;;;;;;6340571;22;19997;-92
2024/04/23 10:34:15;;;;;;;10.23;1.60;;;8.60;99.90;;;;;;6338049;22;19991;-92
2024/04/23 10:36:42;;;;;;;8.88;1.77;;;8.60;99.90;;;;;;6377754;22;20070;-91
2024/04/23 10:39:11;;;;;;;15.15;1.83;;;8.70;99.90;;;;;;6336411;22;19996;-91
2024/04/23 10:41:40;;;;;;;14.13;3.03;;;8.70;99.90;;;;;;6336903;22;20401;-91
2024/04/23 10:44:13;;;;;;;10.80;1.75;;;8.70;99.90;;;;;;6336416;22;20031;-91
2024/04/23 10:46:40;;;;;;;24.55;3.58;;;8.60;99.90;;;;;;6336352;22;20010;-91
2024/04/23 10:49:15;;;;;;;11.85;2.13;;;8.40;99.90;;;;;;6335635;22;20051;-91
2024/04/23 10:51:44;;;;;;;20.08;2.50;;;8.30;99.90;;;;;;6376495;22;20015;-91
2024/04/23 10:54:11;;;;;;;18.35;3.00;;;8.10;99.90;;;;;;6335655;22;20290;-91
2024/04/23 10:56:37;;;;;;;16.58;2.97;;;8.00;99.90;;;;;;6336098;22;20019;-91
2024/04/23 10:59:04;;;;;;;23.00;5.13;;;7.90;99.90;;;;;;6336067;22;20006;-91
2024/04/23 11:01:30;;;;;;;17.17;2.72;;;7.80;99.90;;;;;;6336168;22;20422;-91
2024/04/23 11:03:57;;;;;;;19.63;2.10;;;7.80;99.90;;;;;;6336025;22;20010;-89
2024/04/23 11:06:38;;;;;;;19.40;3.17;;;7.80;99.90;;;;;;6378286;22;19999;-90
2024/04/23 11:09:21;;;;;;;18.92;2.38;;;7.90;99.90;;;;;;6335527;22;19999;-90
2024/04/23 11:11:54;;;;;;;17.10;3.35;;;8.00;99.90;;;;;;6378754;22;20306;-90
2024/04/23 11:14:34;;;;;;;23.98;3.03;;;8.00;99.90;;;;;;6335388;22;20039;-91
2024/04/23 11:17:04;;;;;;;16.38;2.53;;;8.10;99.90;;;;;;6335436;22;20432;-91
2024/04/23 11:19:49;;;;;;;20.17;3.78;;;8.20;99.90;;;;;;6335317;22;20402;-90
2024/04/23 11:22:34;;;;;;;18.02;2.30;;;8.20;99.90;;;;;;6377864;22;20395;-91
2024/04/23 11:25:11;;;;;;;21.05;3.67;;;8.20;99.90;;;;;;6335295;22;20011;-90
2024/04/23 11:27:37;;;;;;;17.58;2.50;;;8.20;99.90;;;;;;6335291;22;20011;-91
2024/04/23 11:30:03;;;;;;;20.63;2.88;;;8.20;99.90;;;;;;6335418;22;19999;-91
2024/04/23 11:32:30;;;;;;;19.80;3.50;;;8.20;99.90;;;;;;6377730;22;19999;-90
2024/04/23 11:34:56;;;;;;;15.15;2.25;;;8.40;99.90;;;;;;6334587;22;19999;-89
2024/04/23 11:37:28;;;;;;;21.77;3.13;;;8.60;99.90;;;;;;6335147;22;19999;-90
2024/04/23 11:39:59;;;;;;;22.88;2.95;;;8.80;99.90;;;;;;6377958;22;20070;-91
2024/04/23 11:42:26;;;;;;;15.52;2.40;;;9.10;99.90;;;;;;6335223;22;19995;-91
2024/04/23 11:44:55;;;;;;;14.75;2.88;;;9.30;99.90;;;;;;6335136;22;20007;-91
2024/04/23 11:47:24;;;;;;;20.17;2.65;;;9.40;99.90;;;;;;6335201;22;20003;-91
2024/04/23 11:49:49;;;;;;;15.63;2.33;;;9.50;99.90;;;;;;6334702;22;20010;-90
2024/04/23 11:52:15;;;;;;;14.20;2.60;;;9.50;99.90;;;;;;6334804;22;20400;-90
2024/04/23 11:54:41;;;;;;;20.48;3.53;;;9.40;99.90;;;;;;6337969;22;20319;-90
2024/04/23 11:57:07;;;;;;;21.23;2.83;;;9.40;99.90;;;;;;6378881;22;20010;-91
2024/04/23 11:59:33;;;;;;;15.18;2.22;;;9.40;99.90;;;;;;6334959;22;19991;-90
2024/04/23 12:01:59;;;;;;;20.90;2.40;;;9.40;99.90;;;;;;6336476;22;20023;-90
2024/04/23 12:04:25;;;;;;;15.98;2.30;;;9.50;99.80;;;;;;6335671;22;19995;-90
2024/04/23 12:06:52;;;;;;;13.02;2.63;;;9.50;99.70;;;;;;6335659;22;19995;-90
2024/04/23 12:09:18;;;;;;;16.33;2.30;;;9.50;99.50;;;;;;6335444;22;20010;-89
2024/04/23 12:11:47;;;;;;;14.82;1.67;;;9.60;99.30;;;;;;6334746;22;19995;-91
2024/04/23 12:14:13;;;;;;;22.63;3.63;;;9.60;98.70;;;;;;6334477;22;19995;-91
2024/04/23 12:16:42;;;;;;;18.60;2.38;;;9.70;98.50;;;;;;6334936;22;19996;-90
2024/04/23 12:19:09;;;;;;;8.70;2.60;;;9.80;98.20;;;;;;6334200;22;20135;-91
2024/04/23 12:21:35;;;;;;;10.27;2.05;;;9.90;97.60;;;;;;6335885;22;19998;-90
2024/04/23 12:24:01;;;;;;;15.73;2.05;;;10.10;97.40;;;;;;6341312;22;19997;-91
2024/04/23 12:26:27;;;;;;;17.45;2.17;;;10.20;96.80;;;;;;6342785;22;20010;-88
2024/04/23 12:28:53;;;;;;;14.20;2.15;;;10.30;95.90;;;;;;6344983;22;20422;-91
2024/04/23 12:31:19;;;;;;;26.42;2.58;;;10.30;94.90;;;;;;6346993;22;19999;-89
2024/04/23 12:33:45;;;;;;;15.23;2.25;;;10.30;94.50;;;;;;6345326;22;19999;-89
2024/04/23 12:36:11;;;;;;;16.00;2.03;;;10.30;93.60;;;;;;6344190;22;19996;-88
2024/04/23 12:38:44;;;;;;;15.25;2.40;;;10.20;93.60;;;;;;6343221;22;20092;-87
2024/04/23 12:41:38;;;;;;;17.27;3.08;;;10.20;93.50;;;;;;6343366;22;20014;-90
2024/04/23 12:44:15;;;;;;;17.27;1.88;;;10.20;93.80;;;;;;6337199;22;19992;-90
2024/04/23 12:46:41;;;;;;;15.25;2.53;;;10.50;94.30;;;;;;6345631;22;20422;-90
2024/04/23 12:49:07;;;;;;;9.50;1.60;;;10.80;94.20;;;;;;6345956;22;20010;-90
2024/04/23 12:51:33;;;;;;;11.07;1.67;;;11.10;93.70;;;;;;6337805;22;20072;-90
2024/04/23 12:53:59;;;;;;;15.15;2.33;;;11.30;92.80;;;;;;6346158;22;20009;-90
2024/04/23 12:56:27;;;;;;;9.15;1.70;;;11.40;91.90;;;;;;6341878;22;19996;-89